Midwest City, Oklahoma
Current Conditions -  °F | °C
As of 6:58 AM on Friday 24 Oct 2014 (Local Time) from KTIK Reporting Station
Clear Clear  
Wind Chill: 57°   Ceiling: Unl
Heat Index: 57°   Visibility: 10mi
Dew Point: 54°   Wind: 9mph
Humidity: 92%   Direction: 150°SSE
Pressure: 30.09"   Gusts: NA
Location:  35.46°N, 97.38°W
Report Text: KTIK 241158Z AUTO 15008KT 10SM CLR 14/12 A3009 RMK AO2 SLP190 T01370124 10163 20137 55000 $
Loading
Personal Weather Stations






























Interactive Weather Map
Tropical Storm Tracking
New forecast layout! Learn more

10-Day Weather Forecast

Advertisements
Track Severe Weather on mobile